sensor_id;sensor_type;location;lat;lon;timestamp;pressure;altitude;pressure_sealevel;temperature;humidity
70015;BME280;57358;51.094;6.760;2023-05-22T00:01:00;100898.31;;;17.19;100.00
70015;BME280;57358;51.094;6.760;2023-05-22T00:03:30;100892.28;;;17.17;100.00
70015;BME280;57358;51.094;6.760;2023-05-22T00:05:56;100855.25;;;16.92;100.00
70015;BME280;57358;51.094;6.760;2023-05-22T00:08:25;100893.47;;;17.12;100.00
70015;BME280;57358;51.094;6.760;2023-05-22T00:10:55;100867.75;;;16.90;100.00
70015;BME280;57358;51.094;6.760;2023-05-22T00:13:21;100886.72;;;17.08;100.00
70015;BME280;57358;51.094;6.760;2023-05-22T00:15:48;100827.53;;;16.61;100.00
70015;BME280;57358;51.094;6.760;2023-05-22T00:18:14;100863.38;;;16.78;100.00
70015;BME280;57358;51.094;6.760;2023-05-22T00:20:41;100858.91;;;16.79;100.00
70015;BME280;57358;51.094;6.760;2023-05-22T00:23:07;100881.97;;;16.89;100.00
70015;BME280;57358;51.094;6.760;2023-05-22T00:25:39;100882.22;;;16.86;100.00
70015;BME280;57358;51.094;6.760;2023-05-22T00:28:06;100851.25;;;16.63;100.00
70015;BME280;57358;51.094;6.760;2023-05-22T00:30:33;100871.63;;;16.73;100.00
70015;BME280;57358;51.094;6.760;2023-05-22T00:33:00;100888.53;;;16.72;100.00
70015;BME280;57358;51.094;6.760;2023-05-22T00:35:27;100890.00;;;16.52;100.00
70015;BME280;57358;51.094;6.760;2023-05-22T00:37:53;100885.34;;;16.56;100.00
70015;BME280;57358;51.094;6.760;2023-05-22T00:40:21;100886.53;;;16.52;100.00
70015;BME280;57358;51.094;6.760;2023-05-22T00:42:47;100879.25;;;16.43;100.00
70015;BME280;57358;51.094;6.760;2023-05-22T00:45:14;100875.13;;;16.39;100.00
70015;BME280;57358;51.094;6.760;2023-05-22T00:47:41;100846.34;;;16.10;100.00
70015;BME280;57358;51.094;6.760;2023-05-22T00:50:09;100882.06;;;16.28;100.00
70015;BME280;57358;51.094;6.760;2023-05-22T00:52:39;100884.09;;;16.25;100.00
70015;BME280;57358;51.094;6.760;2023-05-22T00:55:07;100822.50;;;15.86;100.00
70015;BME280;57358;51.094;6.760;2023-05-22T00:57:35;100825.88;;;15.88;100.00
70015;BME280;57358;51.094;6.760;2023-05-22T01:00:03;100848.47;;;16.05;100.00
70015;BME280;57358;51.094;6.760;2023-05-22T01:02:31;100835.28;;;15.92;100.00
70015;BME280;57358;51.094;6.760;2023-05-22T01:04:58;100887.56;;;16.25;100.00
70015;BME280;57358;51.094;6.760;2023-05-22T01:07:24;100885.06;;;16.24;100.00
70015;BME280;57358;51.094;6.760;2023-05-22T01:09:51;100880.94;;;16.20;100.00
70015;BME280;57358;51.094;6.760;2023-05-22T01:12:37;100885.16;;;16.22;100.00
70015;BME280;57358;51.094;6.760;2023-05-22T01:20:24;100890.38;;;16.11;100.00
70015;BME280;57358;51.094;6.760;2023-05-22T01:31:29;100831.63;;;15.69;100.00
70015;BME280;57358;51.094;6.760;2023-05-22T01:33:59;100833.84;;;15.75;100.00
70015;BME280;57358;51.094;6.760;2023-05-22T01:36:29;100716.81;;;14.98;100.00
70015;BME280;57358;51.094;6.760;2023-05-22T01:38:57;100845.56;;;15.71;100.00
70015;BME280;57358;51.094;6.760;2023-05-22T01:41:28;100881.31;;;16.02;100.00
70015;BME280;57358;51.094;6.760;2023-05-22T01:43:54;100812.06;;;15.59;100.00
70015;BME280;57358;51.094;6.760;2023-05-22T01:46:25;100746.25;;;15.17;100.00
70015;BME280;57358;51.094;6.760;2023-05-22T01:48:52;100881.41;;;16.01;100.00
70015;BME280;57358;51.094;6.760;2023-05-22T01:51:51;100882.25;;;16.01;100.00
70015;BME280;57358;51.094;6.760;2023-05-22T01:54:28;100879.00;;;15.98;100.00
70015;BME280;57358;51.094;6.760;2023-05-22T02:00:06;100807.13;;;15.54;100.00
70015;BME280;57358;51.094;6.760;2023-05-22T02:02:35;100808.78;;;15.55;100.00
70015;BME280;57358;51.094;6.760;2023-05-22T02:05:04;100870.16;;;15.86;100.00
70015;BME280;57358;51.094;6.760;2023-05-22T02:07:31;100831.31;;;15.61;100.00
70015;BME280;57358;51.094;6.760;2023-05-22T02:09:59;100869.81;;;15.90;100.00
70015;BME280;57358;51.094;6.760;2023-05-22T02:12:27;100823.38;;;15.61;100.00
70015;BME280;57358;51.094;6.760;2023-05-22T02:14:54;100859.66;;;15.84;100.00
70015;BME280;57358;51.094;6.760;2023-05-22T02:17:21;100860.75;;;15.82;100.00
70015;BME280;57358;51.094;6.760;2023-05-22T02:19:48;100872.91;;;15.84;100.00
70015;BME280;57358;51.094;6.760;2023-05-22T02:22:14;100876.63;;;15.82;100.00
70015;BME280;57358;51.094;6.760;2023-05-22T02:24:44;100824.16;;;15.50;100.00
70015;BME280;57358;51.094;6.760;2023-05-22T02:27:12;100873.34;;;15.78;100.00
70015;BME280;57358;51.094;6.760;2023-05-22T02:29:39;100842.66;;;15.50;100.00
70015;BME280;57358;51.094;6.760;2023-05-22T02:32:06;100891.13;;;15.76;100.00
70015;BME280;57358;51.094;6.760;2023-05-22T02:34:32;100874.63;;;15.72;100.00
70015;BME280;57358;51.094;6.760;2023-05-22T02:37:00;100861.25;;;15.61;100.00
70015;BME280;57358;51.094;6.760;2023-05-22T02:39:30;100877.66;;;15.66;100.00
70015;BME280;57358;51.094;6.760;2023-05-22T02:41:56;100870.81;;;15.64;100.00
70015;BME280;57358;51.094;6.760;2023-05-22T02:44:22;100871.72;;;15.63;100.00
70015;BME280;57358;51.094;6.760;2023-05-22T02:46:49;100827.53;;;15.39;100.00
70015;BME280;57358;51.094;6.760;2023-05-22T02:49:15;100846.25;;;15.49;100.00
70015;BME280;57358;51.094;6.760;2023-05-22T02:51:42;100865.59;;;15.62;100.00
70015;BME280;57358;51.094;6.760;2023-05-22T02:54:14;100866.44;;;15.63;100.00
70015;BME280;57358;51.094;6.760;2023-05-22T02:56:42;100866.78;;;15.58;100.00
70015;BME280;57358;51.094;6.760;2023-05-22T02:59:08;100807.78;;;15.19;100.00
70015;BME280;57358;51.094;6.760;2023-05-22T03:01:37;100860.13;;;15.52;100.00
70015;BME280;57358;51.094;6.760;2023-05-22T03:04:04;100861.50;;;15.58;100.00
70015;BME280;57358;51.094;6.760;2023-05-22T03:06:32;100813.81;;;15.21;100.00
70015;BME280;57358;51.094;6.760;2023-05-22T03:09:00;100868.16;;;15.51;100.00
70015;BME280;57358;51.094;6.760;2023-05-22T03:11:29;100853.56;;;15.32;100.00
70015;BME280;57358;51.094;6.760;2023-05-22T03:13:56;100863.09;;;15.48;100.00
70015;BME280;57358;51.094;6.760;2023-05-22T03:16:23;100845.00;;;15.29;100.00
70015;BME280;57358;51.094;6.760;2023-05-22T03:18:50;100838.66;;;15.19;100.00
70015;BME280;57358;51.094;6.760;2023-05-22T03:21:17;100865.53;;;15.38;100.00
70015;BME280;57358;51.094;6.760;2023-05-22T03:23:43;100866.81;;;15.32;100.00
70015;BME280;57358;51.094;6.760;2023-05-22T03:26:10;100869.88;;;15.26;100.00
70015;BME280;57358;51.094;6.760;2023-05-22T03:28:36;100787.91;;;14.75;100.00
70015;BME280;57358;51.094;6.760;2023-05-22T03:31:03;100792.47;;;14.86;100.00
70015;BME280;57358;51.094;6.760;2023-05-22T03:33:29;100707.56;;;14.26;100.00
70015;BME280;57358;51.094;6.760;2023-05-22T03:35:56;100856.09;;;15.21;100.00
70015;BME280;57358;51.094;6.760;2023-05-22T03:38:22;100849.03;;;15.09;100.00
70015;BME280;57358;51.094;6.760;2023-05-22T03:40:49;100856.44;;;15.16;100.00
70015;BME280;57358;51.094;6.760;2023-05-22T03:43:15;100858.97;;;15.05;100.00
70015;BME280;57358;51.094;6.760;2023-05-22T03:45:42;100861.41;;;15.08;100.00
70015;BME280;57358;51.094;6.760;2023-05-22T03:48:09;100859.19;;;15.15;100.00
70015;BME280;57358;51.094;6.760;2023-05-22T03:50:36;100862.16;;;15.10;100.00
70015;BME280;57358;51.094;6.760;2023-05-22T03:53:03;100864.59;;;15.13;100.00
70015;BME280;57358;51.094;6.760;2023-05-22T03:55:31;100803.56;;;14.78;100.00
70015;BME280;57358;51.094;6.760;2023-05-22T03:57:57;100786.22;;;14.61;100.00
70015;BME280;57358;51.094;6.760;2023-05-22T04:00:23;100862.16;;;15.10;100.00
70015;BME280;57358;51.094;6.760;2023-05-22T04:02:52;100739.56;;;14.34;100.00
70015;BME280;57358;51.094;6.760;2023-05-22T04:05:20;100782.81;;;14.59;100.00
70015;BME280;57358;51.094;6.760;2023-05-22T04:07:46;100865.84;;;15.08;100.00
70015;BME280;57358;51.094;6.760;2023-05-22T04:10:12;100813.38;;;14.63;100.00
70015;BME280;57358;51.094;6.760;2023-05-22T04:12:39;100862.06;;;15.12;100.00
70015;BME280;57358;51.094;6.760;2023-05-22T04:15:06;100865.53;;;15.12;100.00
70015;BME280;57358;51.094;6.760;2023-05-22T04:17:34;100714.41;;;14.16;100.00
70015;BME280;57358;51.094;6.760;2023-05-22T04:20:00;100848.72;;;15.01;100.00
70015;BME280;57358;51.094;6.760;2023-05-22T04:22:27;100874.44;;;15.11;100.00
70015;BME280;57358;51.094;6.760;2023-05-22T04:24:56;100791.63;;;14.60;100.00
70015;BME280;57358;51.094;6.760;2023-05-22T04:27:23;100840.13;;;14.84;100.00
70015;BME280;57358;51.094;6.760;2023-05-22T04:29:50;100862.16;;;14.98;100.00
70015;BME280;57358;51.094;6.760;2023-05-22T04:32:16;100844.25;;;14.75;100.00
70015;BME280;57358;51.094;6.760;2023-05-22T04:34:46;100889.66;;;15.08;100.00
70015;BME280;57358;51.094;6.760;2023-05-22T04:37:12;100814.75;;;14.69;100.00
70015;BME280;57358;51.094;6.760;2023-05-22T04:39:40;100844.16;;;14.90;100.00
70015;BME280;57358;51.094;6.760;2023-05-22T04:42:06;100812.25;;;14.67;100.00
70015;BME280;57358;51.094;6.760;2023-05-22T04:44:34;100663.88;;;13.82;100.00
70015;BME280;57358;51.094;6.760;2023-05-22T04:47:01;100903.09;;;15.18;100.00
70015;BME280;57358;51.094;6.760;2023-05-22T04:49:30;100872.31;;;15.04;100.00
70015;BME280;57358;51.094;6.760;2023-05-22T04:51:57;100714.50;;;14.14;100.00
70015;BME280;57358;51.094;6.760;2023-05-22T04:54:23;100840.56;;;14.91;100.00
70015;BME280;57358;51.094;6.760;2023-05-22T04:56:50;100903.09;;;15.30;100.00
70015;BME280;57358;51.094;6.760;2023-05-22T04:59:19;100899.16;;;15.36;100.00
70015;BME280;57358;51.094;6.760;2023-05-22T05:01:48;100825.03;;;14.99;100.00
70015;BME280;57358;51.094;6.760;2023-05-22T05:04:15;100894.84;;;15.48;100.00
70015;BME280;57358;51.094;6.760;2023-05-22T05:06:43;100804.75;;;15.00;100.00
70015;BME280;57358;51.094;6.760;2023-05-22T05:09:09;100896.31;;;15.52;100.00
70015;BME280;57358;51.094;6.760;2023-05-22T05:11:36;100812.34;;;15.17;100.00
70015;BME280;57358;51.094;6.760;2023-05-22T05:14:02;100854.34;;;15.22;100.00
70015;BME280;57358;51.094;6.760;2023-05-22T05:16:29;100624.31;;;13.95;100.00
70015;BME280;57358;51.094;6.760;2023-05-22T05:18:55;100892.25;;;15.59;100.00
70015;BME280;57358;51.094;6.760;2023-05-22T05:21:22;100822.47;;;15.23;100.00
70015;BME280;57358;51.094;6.760;2023-05-22T05:23:49;100869.72;;;15.53;100.00
70015;BME280;57358;51.094;6.760;2023-05-22T05:26:17;100823.03;;;15.03;100.00
70015;BME280;57358;51.094;6.760;2023-05-22T05:28:43;100859.91;;;15.43;100.00
70015;BME280;57358;51.094;6.760;2023-05-22T05:31:10;100871.75;;;15.50;100.00
70015;BME280;57358;51.094;6.760;2023-05-22T05:33:37;100849.00;;;15.47;100.00
70015;BME280;57358;51.094;6.760;2023-05-22T05:36:03;100884.22;;;15.73;100.00
70015;BME280;57358;51.094;6.760;2023-05-22T05:38:30;100735.59;;;14.93;100.00
70015;BME280;57358;51.094;6.760;2023-05-22T05:40:56;100919.13;;;16.04;100.00
70015;BME280;57358;51.094;6.760;2023-05-22T05:43:23;100900.69;;;16.03;100.00
70015;BME280;57358;51.094;6.760;2023-05-22T05:45:50;100918.13;;;16.05;100.00
70015;BME280;57358;51.094;6.760;2023-05-22T05:48:17;100923.63;;;16.15;100.00
70015;BME280;57358;51.094;6.760;2023-05-22T05:50:43;100797.31;;;15.30;100.00
70015;BME280;57358;51.094;6.760;2023-05-22T05:53:10;100878.09;;;15.73;100.00
70015;BME280;57358;51.094;6.760;2023-05-22T05:55:36;100897.44;;;15.86;100.00
70015;BME280;57358;51.094;6.760;2023-05-22T05:58:03;100932.00;;;16.09;100.00
70015;BME280;57358;51.094;6.760;2023-05-22T06:00:29;100774.59;;;15.15;100.00
70015;BME280;57358;51.094;6.760;2023-05-22T06:02:56;100897.09;;;16.04;100.00
70015;BME280;57358;51.094;6.760;2023-05-22T06:05:23;100936.22;;;16.24;100.00
70015;BME280;57358;51.094;6.760;2023-05-22T06:07:50;100878.81;;;15.88;100.00
70015;BME280;57358;51.094;6.760;2023-05-22T06:10:17;100935.03;;;16.28;100.00
70015;BME280;57358;51.094;6.760;2023-05-22T06:12:43;100933.75;;;16.34;100.00
70015;BME280;57358;51.094;6.760;2023-05-22T06:15:10;100772.13;;;15.38;100.00
70015;BME280;57358;51.094;6.760;2023-05-22T06:17:38;100945.38;;;16.44;100.00
70015;BME280;57358;51.094;6.760;2023-05-22T06:20:06;100863.78;;;15.88;100.00
70015;BME280;57358;51.094;6.760;2023-05-22T06:22:32;100932.59;;;16.49;100.00
70015;BME280;57358;51.094;6.760;2023-05-22T06:24:59;100926.53;;;16.60;100.00
70015;BME280;57358;51.094;6.760;2023-05-22T06:27:25;100827.34;;;15.92;100.00
70015;BME280;57358;51.094;6.760;2023-05-22T06:29:54;100942.19;;;16.39;100.00
70015;BME280;57358;51.094;6.760;2023-05-22T06:32:21;100942.28;;;16.38;100.00
70015;BME280;57358;51.094;6.760;2023-05-22T06:34:48;100878.94;;;15.86;100.00
70015;BME280;57358;51.094;6.760;2023-05-22T06:37:15;100952.09;;;16.24;100.00
70015;BME280;57358;51.094;6.760;2023-05-22T06:39:42;100903.34;;;16.03;100.00
70015;BME280;57358;51.094;6.760;2023-05-22T06:42:08;100949.34;;;16.26;100.00
70015;BME280;57358;51.094;6.760;2023-05-22T06:44:37;100910.94;;;16.07;100.00
70015;BME280;57358;51.094;6.760;2023-05-22T06:47:04;100959.34;;;16.46;100.00
70015;BME280;57358;51.094;6.760;2023-05-22T06:49:30;100957.34;;;16.61;100.00
70015;BME280;57358;51.094;6.760;2023-05-22T06:51:57;100958.00;;;16.65;100.00
70015;BME280;57358;51.094;6.760;2023-05-22T06:54:23;100963.41;;;16.63;100.00
70015;BME280;57358;51.094;6.760;2023-05-22T06:56:54;100968.06;;;16.60;100.00
70015;BME280;57358;51.094;6.760;2023-05-22T06:59:21;100966.84;;;16.77;100.00
70015;BME280;57358;51.094;6.760;2023-05-22T07:01:48;100964.66;;;16.70;100.00
70015;BME280;57358;51.094;6.760;2023-05-22T07:04:14;100703.38;;;14.88;100.00
70015;BME280;57358;51.094;6.760;2023-05-22T07:06:41;100959.38;;;16.33;100.00
70015;BME280;57358;51.094;6.760;2023-05-22T07:09:08;100957.63;;;16.45;100.00
70015;BME280;57358;51.094;6.760;2023-05-22T07:11:36;100928.19;;;16.50;100.00
70015;BME280;57358;51.094;6.760;2023-05-22T07:14:03;100956.25;;;16.52;100.00
70015;BME280;57358;51.094;6.760;2023-05-22T07:16:30;100974.81;;;17.01;100.00
70015;BME280;57358;51.094;6.760;2023-05-22T07:18:56;100976.63;;;17.11;100.00
70015;BME280;57358;51.094;6.760;2023-05-22T07:21:23;100966.19;;;17.21;100.00
70015;BME280;57358;51.094;6.760;2023-05-22T07:23:53;100974.25;;;17.20;100.00
70015;BME280;57358;51.094;6.760;2023-05-22T07:26:19;100975.34;;;17.17;100.00
70015;BME280;57358;51.094;6.760;2023-05-22T07:28:49;100955.00;;;16.93;100.00
70015;BME280;57358;51.094;6.760;2023-05-22T07:31:16;100911.13;;;16.17;100.00
70015;BME280;57358;51.094;6.760;2023-05-22T07:33:42;100982.84;;;16.75;100.00
70015;BME280;57358;51.094;6.760;2023-05-22T07:36:08;100969.84;;;16.72;100.00
70015;BME280;57358;51.094;6.760;2023-05-22T07:38:35;100980.66;;;16.69;100.00
70015;BME280;57358;51.094;6.760;2023-05-22T07:41:02;100993.47;;;16.99;100.00
70015;BME280;57358;51.094;6.760;2023-05-22T07:43:30;100818.00;;;16.23;100.00
70015;BME280;57358;51.094;6.760;2023-05-22T07:45:56;100983.97;;;17.43;100.00
70015;BME280;57358;51.094;6.760;2023-05-22T07:48:23;100911.63;;;16.94;100.00
70015;BME280;57358;51.094;6.760;2023-05-22T07:50:49;100980.69;;;17.40;100.00
70015;BME280;57358;51.094;6.760;2023-05-22T07:53:16;100920.06;;;16.88;100.00
70015;BME280;57358;51.094;6.760;2023-05-22T07:55:45;100905.09;;;16.63;100.00
70015;BME280;57358;51.094;6.760;2023-05-22T07:58:12;100967.91;;;17.33;100.00
70015;BME280;57358;51.094;6.760;2023-05-22T08:00:39;100927.41;;;17.43;100.00
70015;BME280;57358;51.094;6.760;2023-05-22T08:03:05;100971.47;;;17.79;100.00
70015;BME280;57358;51.094;6.760;2023-05-22T08:05:32;100968.06;;;17.66;100.00
70015;BME280;57358;51.094;6.760;2023-05-22T08:07:58;100965.47;;;17.88;100.00
70015;BME280;57358;51.094;6.760;2023-05-22T08:10:25;100965.34;;;18.01;100.00
70015;BME280;57358;51.094;6.760;2023-05-22T08:12:55;100916.69;;;18.01;100.00
70015;BME280;57358;51.094;6.760;2023-05-22T08:15:23;100958.47;;;18.65;100.00
70015;BME280;57358;51.094;6.760;2023-05-22T08:17:50;100935.63;;;18.62;100.00
70015;BME280;57358;51.094;6.760;2023-05-22T08:20:16;100871.78;;;18.09;100.00
70015;BME280;57358;51.094;6.760;2023-05-22T08:22:43;100898.78;;;18.25;100.00
70015;BME280;57358;51.094;6.760;2023-05-22T08:25:09;100916.41;;;18.26;100.00
70015;BME280;57358;51.094;6.760;2023-05-22T08:27:36;100952.13;;;18.45;100.00
70015;BME280;57358;51.094;6.760;2023-05-22T08:30:02;100796.69;;;17.18;100.00
70015;BME280;57358;51.094;6.760;2023-05-22T08:32:30;100946.03;;;17.88;100.00
70015;BME280;57358;51.094;6.760;2023-05-22T08:34:56;100875.16;;;17.21;100.00
70015;BME280;57358;51.094;6.760;2023-05-22T08:37:24;100958.78;;;17.49;100.00
70015;BME280;57358;51.094;6.760;2023-05-22T08:39:51;100903.38;;;17.22;100.00
70015;BME280;57358;51.094;6.760;2023-05-22T08:42:18;100886.63;;;17.21;100.00
70015;BME280;57358;51.094;6.760;2023-05-22T08:44:46;100906.31;;;17.52;100.00
70015;BME280;57358;51.094;6.760;2023-05-22T08:47:13;100870.84;;;17.53;100.00
70015;BME280;57358;51.094;6.760;2023-05-22T08:49:41;100946.59;;;18.25;100.00
70015;BME280;57358;51.094;6.760;2023-05-22T08:52:21;100870.84;;;17.87;100.00
70015;BME280;57358;51.094;6.760;2023-05-22T08:54:53;100920.75;;;18.16;100.00
70015;BME280;57358;51.094;6.760;2023-05-22T08:57:20;100875.31;;;17.64;100.00
70015;BME280;57358;51.094;6.760;2023-05-22T08:59:47;100928.88;;;17.81;100.00
70015;BME280;57358;51.094;6.760;2023-05-22T09:02:15;100943.97;;;17.91;100.00
70015;BME280;57358;51.094;6.760;2023-05-22T09:04:42;100939.97;;;17.74;100.00
70015;BME280;57358;51.094;6.760;2023-05-22T09:07:09;100931.19;;;17.85;100.00
70015;BME280;57358;51.094;6.760;2023-05-22T09:09:36;100866.97;;;17.35;100.00
70015;BME280;57358;51.094;6.760;2023-05-22T09:12:07;100937.41;;;17.62;100.00
70015;BME280;57358;51.094;6.760;2023-05-22T09:14:45;100901.38;;;17.59;100.00
70015;BME280;57358;51.094;6.760;2023-05-22T09:17:14;100966.03;;;17.58;100.00
70015;BME280;57358;51.094;6.760;2023-05-22T09:19:43;100963.88;;;17.74;100.00
70015;BME280;57358;51.094;6.760;2023-05-22T09:22:11;100956.41;;;17.91;100.00
70015;BME280;57358;51.094;6.760;2023-05-22T09:24:43;100835.28;;;17.45;100.00
70015;BME280;57358;51.094;6.760;2023-05-22T09:27:10;100922.69;;;18.25;100.00
70015;BME280;57358;51.094;6.760;2023-05-22T09:29:47;100941.53;;;18.66;100.00
70015;BME280;57358;51.094;6.760;2023-05-22T09:32:15;100897.56;;;18.62;97.46
70015;BME280;57358;51.094;6.760;2023-05-22T09:34:42;100842.75;;;18.49;95.27
70015;BME280;57358;51.094;6.760;2023-05-22T09:37:10;100876.06;;;18.32;95.35
70015;BME280;57358;51.094;6.760;2023-05-22T09:39:44;100921.75;;;18.91;97.42
70015;BME280;57358;51.094;6.760;2023-05-22T09:42:13;100876.44;;;18.60;94.42
70015;BME280;57358;51.094;6.760;2023-05-22T09:44:47;100897.03;;;18.68;96.19
70015;BME280;57358;51.094;6.760;2023-05-22T09:47:14;100932.16;;;19.15;95.33
70015;BME280;57358;51.094;6.760;2023-05-22T09:49:42;100870.00;;;18.95;92.81
70015;BME280;57358;51.094;6.760;2023-05-22T09:52:09;100910.28;;;19.11;92.59
70015;BME280;57358;51.094;6.760;2023-05-22T09:54:50;100885.09;;;19.16;93.30
70015;BME280;57358;51.094;6.760;2023-05-22T09:57:22;100902.41;;;19.31;90.74
70015;BME280;57358;51.094;6.760;2023-05-22T09:59:51;100720.69;;;17.94;90.96
70015;BME280;57358;51.094;6.760;2023-05-22T10:02:26;100814.13;;;18.53;90.86
70015;BME280;57358;51.094;6.760;2023-05-22T10:04:53;100886.78;;;19.17;92.60
70015;BME280;57358;51.094;6.760;2023-05-22T10:07:24;100893.00;;;19.79;90.42
70015;BME280;57358;51.094;6.760;2023-05-22T10:10:04;100826.22;;;19.70;86.57
70015;BME280;57358;51.094;6.760;2023-05-22T10:12:32;100862.09;;;20.26;86.03
70015;BME280;57358;51.094;6.760;2023-05-22T10:15:03;100805.88;;;19.19;86.64
70015;BME280;57358;51.094;6.760;2023-05-22T10:17:33;100865.56;;;19.57;87.57
70015;BME280;57358;51.094;6.760;2023-05-22T10:20:00;100868.34;;;19.56;86.57
70015;BME280;57358;51.094;6.760;2023-05-22T10:22:27;100859.19;;;19.18;86.90
70015;BME280;57358;51.094;6.760;2023-05-22T10:24:54;100904.09;;;19.32;91.12
70015;BME280;57358;51.094;6.760;2023-05-22T10:27:21;100838.72;;;19.39;88.49
70015;BME280;57358;51.094;6.760;2023-05-22T10:29:55;100697.16;;;18.22;88.73
70015;BME280;57358;51.094;6.760;2023-05-22T10:32:34;100796.41;;;19.05;88.66
70015;BME280;57358;51.094;6.760;2023-05-22T10:40:47;100820.66;;;19.43;85.01
70015;BME280;57358;51.094;6.760;2023-05-22T10:43:14;100752.34;;;19.12;86.27
70015;BME280;57358;51.094;6.760;2023-05-22T10:45:43;100823.47;;;19.91;85.92
70015;BME280;57358;51.094;6.760;2023-05-22T10:48:11;100756.44;;;19.67;83.24
70015;BME280;57358;51.094;6.760;2023-05-22T10:50:38;100802.88;;;19.93;83.68
70015;BME280;57358;51.094;6.760;2023-05-22T10:53:18;100812.72;;;19.62;85.05
70015;BME280;57358;51.094;6.760;2023-05-22T10:58:15;100754.69;;;19.56;85.57
70015;BME280;57358;51.094;6.760;2023-05-22T11:00:43;100797.56;;;20.42;83.25
70015;BME280;57358;51.094;6.760;2023-05-22T11:03:10;100790.25;;;20.74;79.98
70015;BME280;57358;51.094;6.760;2023-05-22T11:05:51;100725.03;;;20.39;79.64
70015;BME280;57358;51.094;6.760;2023-05-22T11:10:56;100755.31;;;21.04;77.41
70015;BME280;57358;51.094;6.760;2023-05-22T11:13:25;100625.00;;;20.35;76.87
70015;BME280;57358;51.094;6.760;2023-05-22T11:15:54;100717.75;;;20.41;78.65
70015;BME280;57358;51.094;6.760;2023-05-22T11:18:27;100640.41;;;19.93;78.61
70015;BME280;57358;51.094;6.760;2023-05-22T11:20:53;100684.16;;;20.58;77.70
70015;BME280;57358;51.094;6.760;2023-05-22T11:23:23;100672.22;;;20.15;77.77
70015;BME280;57358;51.094;6.760;2023-05-22T11:25:50;100695.31;;;20.33;78.52
70015;BME280;57358;51.094;6.760;2023-05-22T11:28:17;100776.66;;;21.04;78.95
70015;BME280;57358;51.094;6.760;2023-05-22T11:30:44;100734.66;;;21.34;76.03
70015;BME280;57358;51.094;6.760;2023-05-22T11:33:10;100702.59;;;21.16;76.66
70015;BME280;57358;51.094;6.760;2023-05-22T11:35:38;100705.84;;;21.83;75.07
70015;BME280;57358;51.094;6.760;2023-05-22T11:38:05;100687.72;;;22.13;73.45
70015;BME280;57358;51.094;6.760;2023-05-22T11:40:32;100569.31;;;21.68;70.56
70015;BME280;57358;51.094;6.760;2023-05-22T11:42:59;100629.69;;;21.79;71.08
70015;BME280;57358;51.094;6.760;2023-05-22T11:45:25;100609.09;;;21.54;72.43
70015;BME280;57358;51.094;6.760;2023-05-22T11:47:52;100583.38;;;21.52;72.97
70015;BME280;57358;51.094;6.760;2023-05-22T11:50:18;100579.84;;;21.34;72.36
70015;BME280;57358;51.094;6.760;2023-05-22T11:53:05;100652.63;;;21.72;74.98
70015;BME280;57358;51.094;6.760;2023-05-22T11:55:32;100673.06;;;22.17;73.73
70015;BME280;57358;51.094;6.760;2023-05-22T11:57:59;100672.69;;;21.94;73.87
70015;BME280;57358;51.094;6.760;2023-05-22T12:00:27;100689.31;;;22.24;74.49
70015;BME280;57358;51.094;6.760;2023-05-22T12:02:54;100603.75;;;21.98;72.49
70015;BME280;57358;51.094;6.760;2023-05-22T12:05:21;100627.38;;;22.10;72.77
70015;BME280;57358;51.094;6.760;2023-05-22T12:07:51;100650.91;;;22.07;72.79
70015;BME280;57358;51.094;6.760;2023-05-22T12:10:17;100605.13;;;22.02;71.93
70015;BME280;57358;51.094;6.760;2023-05-22T12:12:44;100552.19;;;22.05;71.19
70015;BME280;57358;51.094;6.760;2023-05-22T12:15:11;100615.72;;;22.38;71.21
70015;BME280;57358;51.094;6.760;2023-05-22T12:17:38;100617.69;;;22.09;72.04
70015;BME280;57358;51.094;6.760;2023-05-22T12:20:05;100626.13;;;21.79;73.45
70015;BME280;57358;51.094;6.760;2023-05-22T12:22:32;100638.44;;;21.89;73.96
70015;BME280;57358;51.094;6.760;2023-05-22T12:24:59;100481.22;;;21.32;72.03
70015;BME280;57358;51.094;6.760;2023-05-22T12:27:28;100668.03;;;22.75;72.94
70015;BME280;57358;51.094;6.760;2023-05-22T12:30:07;100612.81;;;22.57;70.82
70015;BME280;57358;51.094;6.760;2023-05-22T12:32:34;100595.09;;;22.64;69.54
70015;BME280;57358;51.094;6.760;2023-05-22T12:35:01;100562.59;;;22.43;70.43
70015;BME280;57358;51.094;6.760;2023-05-22T12:37:27;100578.28;;;22.88;69.39
70015;BME280;57358;51.094;6.760;2023-05-22T12:39:58;100589.78;;;23.32;68.83
70015;BME280;57358;51.094;6.760;2023-05-22T12:42:25;100542.09;;;22.52;69.49
70015;BME280;57358;51.094;6.760;2023-05-22T12:44:53;100516.50;;;22.23;70.99
70015;BME280;57358;51.094;6.760;2023-05-22T12:47:21;100608.06;;;22.85;70.71
70015;BME280;57358;51.094;6.760;2023-05-22T12:49:48;100509.50;;;22.56;69.91
70015;BME280;57358;51.094;6.760;2023-05-22T12:52:14;100570.53;;;23.03;69.10
70015;BME280;57358;51.094;6.760;2023-05-22T12:54:41;100474.91;;;22.20;69.05
70015;BME280;57358;51.094;6.760;2023-05-22T12:57:07;100583.91;;;22.69;70.39
70015;BME280;57358;51.094;6.760;2023-05-22T12:59:34;100564.91;;;22.38;70.53
70015;BME280;57358;51.094;6.760;2023-05-22T13:02:05;100633.25;;;22.75;70.73
70015;BME280;57358;51.094;6.760;2023-05-22T13:04:32;100633.81;;;22.86;70.94
70015;BME280;57358;51.094;6.760;2023-05-22T13:06:58;100595.03;;;22.90;69.94
70015;BME280;57358;51.094;6.760;2023-05-22T13:09:25;100572.47;;;22.50;70.32
70015;BME280;57358;51.094;6.760;2023-05-22T13:11:52;100525.78;;;22.79;68.76
70015;BME280;57358;51.094;6.760;2023-05-22T13:14:18;100607.69;;;23.23;68.58